sensor_id;sensor_type;location;lat;lon;timestamp;pressure;altitude;pressure_sealevel;temperature;humidity
49723;BME280;43484;43.608;1.458;2023-07-29T00:00:43;99488.25;;;24.24;100.00
49723;BME280;43484;43.608;1.458;2023-07-29T00:03:10;99490.97;;;24.21;100.00
49723;BME280;43484;43.608;1.458;2023-07-29T00:05:37;99493.38;;;24.27;100.00
49723;BME280;43484;43.608;1.458;2023-07-29T00:08:04;99490.22;;;24.17;100.00
49723;BME280;43484;43.608;1.458;2023-07-29T00:10:32;99485.28;;;24.07;100.00
49723;BME280;43484;43.608;1.458;2023-07-29T00:12:59;99476.41;;;24.12;100.00
49723;BME280;43484;43.608;1.458;2023-07-29T00:15:25;99472.09;;;24.10;100.00
49723;BME280;43484;43.608;1.458;2023-07-29T00:17:52;99467.06;;;24.04;100.00
49723;BME280;43484;43.608;1.458;2023-07-29T00:20:19;99465.31;;;24.04;100.00
49723;BME280;43484;43.608;1.458;2023-07-29T00:22:45;99460.97;;;24.03;100.00
49723;BME280;43484;43.608;1.458;2023-07-29T00:25:12;99452.28;;;24.03;100.00
49723;BME280;43484;43.608;1.458;2023-07-29T00:27:38;99440.91;;;24.04;100.00
49723;BME280;43484;43.608;1.458;2023-07-29T00:30:06;99435.81;;;23.99;100.00
49723;BME280;43484;43.608;1.458;2023-07-29T00:32:32;99428.16;;;23.92;100.00
49723;BME280;43484;43.608;1.458;2023-07-29T00:34:59;99423.13;;;23.86;100.00
49723;BME280;43484;43.608;1.458;2023-07-29T00:37:28;99412.00;;;23.79;100.00
49723;BME280;43484;43.608;1.458;2023-07-29T00:39:54;99410.31;;;23.77;100.00
49723;BME280;43484;43.608;1.458;2023-07-29T00:42:21;99401.69;;;23.73;100.00
49723;BME280;43484;43.608;1.458;2023-07-29T00:44:47;99396.53;;;23.72;100.00
49723;BME280;43484;43.608;1.458;2023-07-29T00:47:15;99387.91;;;23.68;100.00
49723;BME280;43484;43.608;1.458;2023-07-29T00:49:45;99375.75;;;23.67;100.00
49723;BME280;43484;43.608;1.458;2023-07-29T00:52:12;99377.38;;;23.71;100.00
49723;BME280;43484;43.608;1.458;2023-07-29T00:54:39;99377.66;;;23.62;100.00
49723;BME280;43484;43.608;1.458;2023-07-29T00:57:08;99374.41;;;23.54;100.00
49723;BME280;43484;43.608;1.458;2023-07-29T00:59:35;99365.56;;;23.58;100.00
49723;BME280;43484;43.608;1.458;2023-07-29T01:02:02;99363.19;;;23.50;100.00
49723;BME280;43484;43.608;1.458;2023-07-29T01:04:29;99354.63;;;23.45;100.00
49723;BME280;43484;43.608;1.458;2023-07-29T01:09:59;99331.19;;;23.42;100.00
49723;BME280;43484;43.608;1.458;2023-07-29T01:12:27;99331.25;;;23.41;100.00
49723;BME280;43484;43.608;1.458;2023-07-29T01:15:01;99327.84;;;23.37;100.00
49723;BME280;43484;43.608;1.458;2023-07-29T01:18:08;99323.41;;;23.39;100.00
49723;BME280;43484;43.608;1.458;2023-07-29T01:20:40;99312.88;;;23.42;100.00
49723;BME280;43484;43.608;1.458;2023-07-29T01:23:07;99314.13;;;23.29;100.00
49723;BME280;43484;43.608;1.458;2023-07-29T01:25:34;99298.94;;;23.42;100.00
49723;BME280;43484;43.608;1.458;2023-07-29T01:28:00;99302.56;;;23.38;100.00
49723;BME280;43484;43.608;1.458;2023-07-29T01:30:31;99298.13;;;23.40;100.00
49723;BME280;43484;43.608;1.458;2023-07-29T01:33:06;99309.69;;;23.33;100.00
49723;BME280;43484;43.608;1.458;2023-07-29T01:35:42;99308.25;;;23.21;100.00
49723;BME280;43484;43.608;1.458;2023-07-29T01:38:32;99302.22;;;23.19;100.00
49723;BME280;43484;43.608;1.458;2023-07-29T01:41:01;99305.75;;;23.18;100.00
49723;BME280;43484;43.608;1.458;2023-07-29T01:43:29;99299.91;;;23.10;100.00
49723;BME280;43484;43.608;1.458;2023-07-29T01:45:56;99289.50;;;23.09;100.00
49723;BME280;43484;43.608;1.458;2023-07-29T01:48:23;99292.88;;;23.12;100.00
49723;BME280;43484;43.608;1.458;2023-07-29T01:50:50;99297.00;;;23.19;100.00
49723;BME280;43484;43.608;1.458;2023-07-29T01:53:17;99295.34;;;23.17;100.00
49723;BME280;43484;43.608;1.458;2023-07-29T01:55:44;99294.47;;;23.16;100.00
49723;BME280;43484;43.608;1.458;2023-07-29T01:58:11;99297.00;;;23.19;100.00
49723;BME280;43484;43.608;1.458;2023-07-29T02:00:38;99290.81;;;23.22;100.00
49723;BME280;43484;43.608;1.458;2023-07-29T02:03:05;99291.75;;;23.21;100.00
49723;BME280;43484;43.608;1.458;2023-07-29T02:05:31;99297.03;;;23.18;100.00
49723;BME280;43484;43.608;1.458;2023-07-29T02:07:58;99299.16;;;23.05;100.00
49723;BME280;43484;43.608;1.458;2023-07-29T02:10:24;99306.38;;;22.97;100.00
49723;BME280;43484;43.608;1.458;2023-07-29T02:12:51;99307.41;;;22.92;100.00
49723;BME280;43484;43.608;1.458;2023-07-29T02:15:17;99301.50;;;22.85;100.00
49723;BME280;43484;43.608;1.458;2023-07-29T02:17:45;99300.88;;;22.77;100.00
49723;BME280;43484;43.608;1.458;2023-07-29T02:20:11;99302.63;;;22.77;100.00
49723;BME280;43484;43.608;1.458;2023-07-29T02:22:38;99290.53;;;22.73;100.00
49723;BME280;43484;43.608;1.458;2023-07-29T02:25:05;99284.28;;;22.78;100.00
49723;BME280;43484;43.608;1.458;2023-07-29T02:27:31;99284.47;;;22.72;100.00
49723;BME280;43484;43.608;1.458;2023-07-29T02:29:58;99273.97;;;22.74;100.00
49723;BME280;43484;43.608;1.458;2023-07-29T02:32:25;99263.59;;;22.71;100.00
49723;BME280;43484;43.608;1.458;2023-07-29T02:34:52;99271.38;;;22.74;100.00
49723;BME280;43484;43.608;1.458;2023-07-29T02:37:18;99257.63;;;22.67;100.00
49723;BME280;43484;43.608;1.458;2023-07-29T02:39:45;99249.91;;;22.63;100.00
49723;BME280;43484;43.608;1.458;2023-07-29T02:42:12;99239.66;;;22.57;100.00
49723;BME280;43484;43.608;1.458;2023-07-29T02:44:40;99237.84;;;22.59;100.00
49723;BME280;43484;43.608;1.458;2023-07-29T02:47:06;99232.41;;;22.66;100.00
49723;BME280;43484;43.608;1.458;2023-07-29T02:49:33;99239.25;;;22.70;100.00
49723;BME280;43484;43.608;1.458;2023-07-29T02:51:59;99244.28;;;22.76;100.00
49723;BME280;43484;43.608;1.458;2023-07-29T02:54:26;99243.41;;;22.77;100.00
49723;BME280;43484;43.608;1.458;2023-07-29T02:56:53;99248.63;;;22.77;100.00
49723;BME280;43484;43.608;1.458;2023-07-29T02:59:19;99245.31;;;22.71;100.00
49723;BME280;43484;43.608;1.458;2023-07-29T03:01:46;99253.19;;;22.69;100.00
49723;BME280;43484;43.608;1.458;2023-07-29T03:04:13;99244.53;;;22.69;100.00
49723;BME280;43484;43.608;1.458;2023-07-29T03:06:39;99250.97;;;22.57;100.00
49723;BME280;43484;43.608;1.458;2023-07-29T03:09:06;99244.97;;;22.52;100.00
49723;BME280;43484;43.608;1.458;2023-07-29T03:11:33;99232.13;;;22.45;100.00
49723;BME280;43484;43.608;1.458;2023-07-29T03:13:59;99225.94;;;22.49;100.00
49723;BME280;43484;43.608;1.458;2023-07-29T03:16:27;99219.75;;;22.51;100.00
49723;BME280;43484;43.608;1.458;2023-07-29T03:18:54;99215.25;;;22.58;100.00
49723;BME280;43484;43.608;1.458;2023-07-29T03:21:21;99217.31;;;22.45;100.00
49723;BME280;43484;43.608;1.458;2023-07-29T03:23:47;99191.63;;;21.99;100.00
49723;BME280;43484;43.608;1.458;2023-07-29T03:26:14;99162.47;;;21.84;100.00
49723;BME280;43484;43.608;1.458;2023-07-29T03:28:41;99133.03;;;21.80;100.00
49723;BME280;43484;43.608;1.458;2023-07-29T03:31:09;99121.97;;;22.03;100.00
49723;BME280;43484;43.608;1.458;2023-07-29T03:33:36;99122.84;;;22.03;100.00
49723;BME280;43484;43.608;1.458;2023-07-29T03:36:03;99125.00;;;22.18;100.00
49723;BME280;43484;43.608;1.458;2023-07-29T03:38:29;99124.53;;;22.04;100.00
49723;BME280;43484;43.608;1.458;2023-07-29T03:40:56;99126.28;;;22.04;100.00
49723;BME280;43484;43.608;1.458;2023-07-29T03:43:24;99118.41;;;22.05;100.00
49723;BME280;43484;43.608;1.458;2023-07-29T03:45:50;99133.69;;;22.19;100.00
49723;BME280;43484;43.608;1.458;2023-07-29T03:48:17;99146.69;;;22.20;100.00
49723;BME280;43484;43.608;1.458;2023-07-29T03:50:44;99143.38;;;22.14;100.00
49723;BME280;43484;43.608;1.458;2023-07-29T03:53:10;99153.66;;;22.20;100.00
49723;BME280;43484;43.608;1.458;2023-07-29T03:55:37;99148.34;;;22.23;100.00
49723;BME280;43484;43.608;1.458;2023-07-29T03:58:04;99152.75;;;22.21;100.00
49723;BME280;43484;43.608;1.458;2023-07-29T04:00:30;99161.50;;;22.20;100.00
49723;BME280;43484;43.608;1.458;2023-07-29T04:02:57;99152.81;;;22.19;100.00
49723;BME280;43484;43.608;1.458;2023-07-29T04:05:23;99131.16;;;22.16;100.00
49723;BME280;43484;43.608;1.458;2023-07-29T04:07:50;99120.78;;;22.14;100.00
49723;BME280;43484;43.608;1.458;2023-07-29T04:10:17;99112.22;;;22.09;100.00
49723;BME280;43484;43.608;1.458;2023-07-29T04:12:44;99110.47;;;22.10;100.00
49723;BME280;43484;43.608;1.458;2023-07-29T04:15:10;99108.75;;;22.09;100.00
49723;BME280;43484;43.608;1.458;2023-07-29T04:17:37;99105.13;;;22.14;100.00
49723;BME280;43484;43.608;1.458;2023-07-29T04:20:04;99105.25;;;22.10;100.00
49723;BME280;43484;43.608;1.458;2023-07-29T04:22:31;99104.34;;;22.11;100.00
49723;BME280;43484;43.608;1.458;2023-07-29T04:24:58;99106.19;;;22.07;100.00
49723;BME280;43484;43.608;1.458;2023-07-29T04:27:24;99107.78;;;22.13;100.00
49723;BME280;43484;43.608;1.458;2023-07-29T04:29:51;99109.56;;;22.11;100.00
49723;BME280;43484;43.608;1.458;2023-07-29T04:32:17;99106.31;;;22.03;100.00
49723;BME280;43484;43.608;1.458;2023-07-29T04:34:44;99100.28;;;22.01;100.00
49723;BME280;43484;43.608;1.458;2023-07-29T04:37:11;99097.78;;;21.98;100.00
49723;BME280;43484;43.608;1.458;2023-07-29T04:39:37;99095.06;;;22.01;100.00
49723;BME280;43484;43.608;1.458;2023-07-29T04:42:04;99101.09;;;22.03;100.00
49723;BME280;43484;43.608;1.458;2023-07-29T04:44:31;99094.25;;;21.99;100.00
49723;BME280;43484;43.608;1.458;2023-07-29T04:46:58;99094.22;;;22.00;100.00
49723;BME280;43484;43.608;1.458;2023-07-29T04:49:25;99090.78;;;22.00;100.00
49723;BME280;43484;43.608;1.458;2023-07-29T04:51:51;99096.06;;;21.97;100.00
49723;BME280;43484;43.608;1.458;2023-07-29T04:54:18;99089.22;;;21.93;100.00
49723;BME280;43484;43.608;1.458;2023-07-29T04:56:47;99082.25;;;21.93;100.00
49723;BME280;43484;43.608;1.458;2023-07-29T04:59:13;99085.50;;;22.01;100.00
49723;BME280;43484;43.608;1.458;2023-07-29T05:01:40;99089.28;;;21.91;100.00
49723;BME280;43484;43.608;1.458;2023-07-29T05:04:09;99088.31;;;21.94;100.00
49723;BME280;43484;43.608;1.458;2023-07-29T05:06:36;99096.06;;;21.97;100.00
49723;BME280;43484;43.608;1.458;2023-07-29T05:09:18;99095.84;;;22.04;100.00
49723;BME280;43484;43.608;1.458;2023-07-29T05:11:45;99101.19;;;22.00;100.00
49723;BME280;43484;43.608;1.458;2023-07-29T05:14:16;99102.84;;;22.02;100.00
49723;BME280;43484;43.608;1.458;2023-07-29T05:16:44;99104.63;;;22.00;100.00
49723;BME280;43484;43.608;1.458;2023-07-29T05:19:10;99107.91;;;22.08;100.00
49723;BME280;43484;43.608;1.458;2023-07-29T05:21:38;99114.00;;;22.07;100.00
49723;BME280;43484;43.608;1.458;2023-07-29T05:24:05;99111.59;;;22.01;100.00
49723;BME280;43484;43.608;1.458;2023-07-29T05:26:32;99121.78;;;22.09;100.00
49723;BME280;43484;43.608;1.458;2023-07-29T05:28:59;99113.25;;;22.04;100.00
49723;BME280;43484;43.608;1.458;2023-07-29T05:31:25;99114.78;;;22.11;100.00
49723;BME280;43484;43.608;1.458;2023-07-29T05:33:52;99124.09;;;22.19;100.00
49723;BME280;43484;43.608;1.458;2023-07-29T05:36:19;99132.47;;;22.30;100.00
49723;BME280;43484;43.608;1.458;2023-07-29T05:38:45;99141.97;;;22.33;100.00
49723;BME280;43484;43.608;1.458;2023-07-29T05:41:12;99144.44;;;22.37;100.00
49723;BME280;43484;43.608;1.458;2023-07-29T05:43:39;99147.00;;;22.39;100.00
49723;BME280;43484;43.608;1.458;2023-07-29T05:46:06;99146.13;;;22.40;100.00
49723;BME280;43484;43.608;1.458;2023-07-29T05:48:33;99152.13;;;22.44;100.00
49723;BME280;43484;43.608;1.458;2023-07-29T05:51:00;99162.59;;;22.42;100.00
49723;BME280;43484;43.608;1.458;2023-07-29T05:53:27;99167.78;;;22.44;100.00
49723;BME280;43484;43.608;1.458;2023-07-29T05:55:53;99166.34;;;22.33;100.00
49723;BME280;43484;43.608;1.458;2023-07-29T05:58:20;99161.13;;;22.33;100.00
49723;BME280;43484;43.608;1.458;2023-07-29T06:00:47;99156.53;;;22.42;100.00
49723;BME280;43484;43.608;1.458;2023-07-29T06:03:13;99153.09;;;22.39;100.00
49723;BME280;43484;43.608;1.458;2023-07-29T06:05:41;99158.25;;;22.41;100.00
49723;BME280;43484;43.608;1.458;2023-07-29T06:08:08;99152.94;;;22.44;100.00
49723;BME280;43484;43.608;1.458;2023-07-29T06:10:35;99160.72;;;22.47;100.00
49723;BME280;43484;43.608;1.458;2023-07-29T06:13:01;99154.44;;;22.54;100.00
49723;BME280;43484;43.608;1.458;2023-07-29T06:15:28;99165.53;;;22.61;100.00
49723;BME280;43484;43.608;1.458;2023-07-29T06:17:55;99169.97;;;22.59;100.00
49723;BME280;43484;43.608;1.458;2023-07-29T06:20:23;99175.31;;;22.54;100.00
49723;BME280;43484;43.608;1.458;2023-07-29T06:22:49;99186.56;;;22.56;100.00
49723;BME280;43484;43.608;1.458;2023-07-29T06:25:16;99184.88;;;22.55;100.00
49723;BME280;43484;43.608;1.458;2023-07-29T06:27:43;99182.22;;;22.57;100.00
49723;BME280;43484;43.608;1.458;2023-07-29T06:30:09;99186.06;;;22.44;100.00
49723;BME280;43484;43.608;1.458;2023-07-29T06:32:36;99191.19;;;22.47;100.00
49723;BME280;43484;43.608;1.458;2023-07-29T06:35:03;99185.88;;;22.50;100.00
49723;BME280;43484;43.608;1.458;2023-07-29T06:37:30;99188.09;;;22.63;100.00
49723;BME280;43484;43.608;1.458;2023-07-29T06:39:56;99201.13;;;22.65;100.00
49723;BME280;43484;43.608;1.458;2023-07-29T06:42:23;99203.81;;;22.62;100.00
49723;BME280;43484;43.608;1.458;2023-07-29T06:44:49;99206.91;;;22.74;100.00
49723;BME280;43484;43.608;1.458;2023-07-29T06:47:16;99224.88;;;22.85;100.00
49723;BME280;43484;43.608;1.458;2023-07-29T06:49:43;99228.22;;;22.90;100.00
49723;BME280;43484;43.608;1.458;2023-07-29T06:52:09;99241.22;;;22.91;100.00
49723;BME280;43484;43.608;1.458;2023-07-29T06:54:36;99250.50;;;23.01;100.00
49723;BME280;43484;43.608;1.458;2023-07-29T06:57:03;99258.34;;;23.01;100.00
49723;BME280;43484;43.608;1.458;2023-07-29T06:59:29;99253.66;;;23.12;100.00
49723;BME280;43484;43.608;1.458;2023-07-29T07:01:56;99260.66;;;23.12;100.00
49723;BME280;43484;43.608;1.458;2023-07-29T07:04:23;99275.66;;;23.05;100.00
49723;BME280;43484;43.608;1.458;2023-07-29T07:06:49;99269.88;;;22.94;100.00
49723;BME280;43484;43.608;1.458;2023-07-29T07:09:16;99256.09;;;22.89;100.00
49723;BME280;43484;43.608;1.458;2023-07-29T07:11:44;99254.88;;;23.01;100.00
49723;BME280;43484;43.608;1.458;2023-07-29T07:14:10;99244.06;;;23.13;100.00
49723;BME280;43484;43.608;1.458;2023-07-29T07:16:37;99255.00;;;23.25;100.00
49723;BME280;43484;43.608;1.458;2023-07-29T07:19:06;99267.81;;;23.34;100.00
49723;BME280;43484;43.608;1.458;2023-07-29T07:21:32;99269.38;;;23.40;100.00
49723;BME280;43484;43.608;1.458;2023-07-29T07:23:59;99289.91;;;23.52;100.00
49723;BME280;43484;43.608;1.458;2023-07-29T07:26:26;99304.75;;;23.51;100.00
49723;BME280;43484;43.608;1.458;2023-07-29T07:28:52;99312.41;;;23.58;100.00
49723;BME280;43484;43.608;1.458;2023-07-29T07:31:19;99314.00;;;23.62;100.00
49723;BME280;43484;43.608;1.458;2023-07-29T07:33:46;99323.28;;;23.72;100.00
49723;BME280;43484;43.608;1.458;2023-07-29T07:36:13;99324.09;;;23.74;100.00
49723;BME280;43484;43.608;1.458;2023-07-29T07:38:39;99341.31;;;23.81;100.00
49723;BME280;43484;43.608;1.458;2023-07-29T07:41:06;99343.72;;;23.87;100.00
49723;BME280;43484;43.608;1.458;2023-07-29T07:43:32;99351.41;;;23.93;100.00
49723;BME280;43484;43.608;1.458;2023-07-29T07:46:01;99371.28;;;23.98;100.00
49723;BME280;43484;43.608;1.458;2023-07-29T07:48:28;99390.31;;;24.03;100.00
49723;BME280;43484;43.608;1.458;2023-07-29T07:50:55;99400.00;;;24.01;100.00
49723;BME280;43484;43.608;1.458;2023-07-29T07:53:21;99405.94;;;24.06;100.00
49723;BME280;43484;43.608;1.458;2023-07-29T07:55:48;99416.41;;;24.06;100.00
49723;BME280;43484;43.608;1.458;2023-07-29T07:58:14;99422.44;;;24.08;100.00
49723;BME280;43484;43.608;1.458;2023-07-29T08:00:41;99436.34;;;24.10;100.00
49723;BME280;43484;43.608;1.458;2023-07-29T08:03:08;99430.16;;;24.13;100.00
49723;BME280;43484;43.608;1.458;2023-07-29T08:05:34;99437.75;;;24.20;100.00
49723;BME280;43484;43.608;1.458;2023-07-29T08:08:01;99437.38;;;24.32;100.00
49723;BME280;43484;43.608;1.458;2023-07-29T08:10:28;99444.94;;;24.41;100.00
49723;BME280;43484;43.608;1.458;2023-07-29T08:12:54;99444.88;;;24.43;100.00
49723;BME280;43484;43.608;1.458;2023-07-29T08:15:21;99445.59;;;24.48;100.00
49723;BME280;43484;43.608;1.458;2023-07-29T08:17:48;99441.09;;;24.51;100.00
49723;BME280;43484;43.608;1.458;2023-07-29T08:20:14;99443.75;;;24.50;100.00
49723;BME280;43484;43.608;1.458;2023-07-29T08:22:42;99447.19;;;24.52;100.00
49723;BME280;43484;43.608;1.458;2023-07-29T08:25:08;99445.25;;;24.57;100.00
49723;BME280;43484;43.608;1.458;2023-07-29T08:27:35;99443.19;;;24.68;100.00
49723;BME280;43484;43.608;1.458;2023-07-29T08:30:01;99456.81;;;24.77;100.00
49723;BME280;43484;43.608;1.458;2023-07-29T08:32:28;99463.41;;;24.89;100.00
49723;BME280;43484;43.608;1.458;2023-07-29T08:34:55;99460.53;;;24.97;100.00
49723;BME280;43484;43.608;1.458;2023-07-29T08:37:22;99463.19;;;24.95;100.00
49723;BME280;43484;43.608;1.458;2023-07-29T08:39:48;99467.25;;;25.04;100.00
49723;BME280;43484;43.608;1.458;2023-07-29T08:42:19;99472.38;;;25.08;100.00
49723;BME280;43484;43.608;1.458;2023-07-29T08:44:49;99472.88;;;25.18;100.00
49723;BME280;43484;43.608;1.458;2023-07-29T08:47:16;99487.63;;;25.20;100.00
49723;BME280;43484;43.608;1.458;2023-07-29T08:49:44;99486.53;;;25.27;100.00
49723;BME280;43484;43.608;1.458;2023-07-29T08:52:14;99489.03;;;25.30;100.00
49723;BME280;43484;43.608;1.458;2023-07-29T08:54:41;99491.31;;;25.41;100.00
49723;BME280;43484;43.608;1.458;2023-07-29T08:57:08;99488.44;;;25.48;100.00
49723;BME280;43484;43.608;1.458;2023-07-29T08:59:35;99496.63;;;25.39;100.00
49723;BME280;43484;43.608;1.458;2023-07-29T09:02:02;99490.66;;;25.34;100.00
49723;BME280;43484;43.608;1.458;2023-07-29T09:04:29;99489.75;;;25.35;100.00
49723;BME280;43484;43.608;1.458;2023-07-29T09:06:56;99492.81;;;25.48;100.00
49723;BME280;43484;43.608;1.458;2023-07-29T09:09:22;99489.88;;;25.57;100.00
49723;BME280;43484;43.608;1.458;2023-07-29T09:11:49;99491.69;;;25.55;100.00
49723;BME280;43484;43.608;1.458;2023-07-29T09:14:16;99485.38;;;25.59;100.00
49723;BME280;43484;43.608;1.458;2023-07-29T09:16:44;99483.50;;;25.62;100.00
49723;BME280;43484;43.608;1.458;2023-07-29T09:19:11;99483.31;;;25.68;100.00
49723;BME280;43484;43.608;1.458;2023-07-29T09:21:41;99480.56;;;25.71;100.00
49723;BME280;43484;43.608;1.458;2023-07-29T09:24:08;99488.88;;;25.82;100.00
49723;BME280;43484;43.608;1.458;2023-07-29T09:26:35;99477.28;;;25.88;100.00
49723;BME280;43484;43.608;1.458;2023-07-29T09:29:03;99479.84;;;25.89;100.00
49723;BME280;43484;43.608;1.458;2023-07-29T09:31:30;99476.50;;;25.86;100.00
49723;BME280;43484;43.608;1.458;2023-07-29T09:34:01;99476.34;;;25.90;100.00
49723;BME280;43484;43.608;1.458;2023-07-29T09:36:33;99474.25;;;25.98;100.00
49723;BME280;43484;43.608;1.458;2023-07-29T09:39:00;99483.69;;;26.04;100.00
49723;BME280;43484;43.608;1.458;2023-07-29T09:41:28;99488.66;;;26.12;100.00
49723;BME280;43484;43.608;1.458;2023-07-29T09:43:59;99484.81;;;26.20;100.00
49723;BME280;43484;43.608;1.458;2023-07-29T09:46:32;99487.38;;;26.22;100.00
49723;BME280;43484;43.608;1.458;2023-07-29T09:48:59;99490.69;;;26.27;100.00
49723;BME280;43484;43.608;1.458;2023-07-29T09:51:26;99492.31;;;26.29;100.00
49723;BME280;43484;43.608;1.458;2023-07-29T09:53:52;99485.16;;;26.33;100.00
49723;BME280;43484;43.608;1.458;2023-07-29T09:56:24;99486.94;;;26.54;100.00
49723;BME280;43484;43.608;1.458;2023-07-29T09:58:52;99487.69;;;26.57;100.00
49723;BME280;43484;43.608;1.458;2023-07-29T10:01:19;99490.25;;;26.59;100.00
49723;BME280;43484;43.608;1.458;2023-07-29T10:03:47;99489.72;;;26.72;100.00
49723;BME280;43484;43.608;1.458;2023-07-29T10:06:15;99489.88;;;26.68;100.00
49723;BME280;43484;43.608;1.458;2023-07-29T10:08:42;99491.81;;;26.63;100.00
49723;BME280;43484;43.608;1.458;2023-07-29T10:11:10;99495.75;;;26.74;100.00
49723;BME280;43484;43.608;1.458;2023-07-29T10:13:38;99490.97;;;26.84;100.00
49723;BME280;43484;43.608;1.458;2023-07-29T10:16:05;99493.41;;;26.88;100.00
49723;BME280;43484;43.608;1.458;2023-07-29T10:18:33;99485.44;;;26.90;100.00
49723;BME280;43484;43.608;1.458;2023-07-29T10:21:01;99485.06;;;26.99;100.00
49723;BME280;43484;43.608;1.458;2023-07-29T10:23:42;99491.06;;;27.02;100.00
49723;BME280;43484;43.608;1.458;2023-07-29T10:26:16;99487.50;;;27.24;100.00
49723;BME280;43484;43.608;1.458;2023-07-29T10:28:47;99480.78;;;27.37;100.00
49723;BME280;43484;43.608;1.458;2023-07-29T10:31:17;99478.19;;;27.55;100.00
49723;BME280;43484;43.608;1.458;2023-07-29T10:33:44;99481.84;;;27.53;100.00
49723;BME280;43484;43.608;1.458;2023-07-29T10:36:12;99490.00;;;27.47;100.00
49723;BME280;43484;43.608;1.458;2023-07-29T10:38:40;99479.81;;;27.39;100.00
49723;BME280;43484;43.608;1.458;2023-07-29T10:41:07;99476.84;;;27.47;100.00
49723;BME280;43484;43.608;1.458;2023-07-29T10:43:35;99480.31;;;27.47;100.00
49723;BME280;43484;43.608;1.458;2023-07-29T10:46:23;99471.81;;;27.61;100.00
49723;BME280;43484;43.608;1.458;2023-07-29T10:53:57;99463.59;;;28.05;100.00
49723;BME280;43484;43.608;1.458;2023-07-29T10:56:34;99468.13;;;28.20;100.00
49723;BME280;43484;43.608;1.458;2023-07-29T10:59:22;99468.28;;;28.17;100.00
49723;BME280;43484;43.608;1.458;2023-07-29T11:01:58;99460.53;;;28.14;100.00
49723;BME280;43484;43.608;1.458;2023-07-29T11:04:29;99467.34;;;28.18;100.00
49723;BME280;43484;43.608;1.458;2023-07-29T11:12:42;99461.72;;;28.26;100.00
49723;BME280;43484;43.608;1.458;2023-07-29T11:17:39;99457.19;;;28.47;100.00
49723;BME280;43484;43.608;1.458;2023-07-29T11:20:06;99458.19;;;28.44;100.00
49723;BME280;43484;43.608;1.458;2023-07-29T11:22:35;99459.53;;;28.53;100.00
49723;BME280;43484;43.608;1.458;2023-07-29T11:25:02;99460.34;;;28.55;100.00
49723;BME280;43484;43.608;1.458;2023-07-29T11:27:29;99458.31;;;28.60;100.00
49723;BME280;43484;43.608;1.458;2023-07-29T11:29:58;99452.44;;;28.55;100.00
49723;BME280;43484;43.608;1.458;2023-07-29T11:32:25;99447.94;;;28.57;100.00
49723;BME280;43484;43.608;1.458;2023-07-29T11:34:53;99444.59;;;28.53;100.00
49723;BME280;43484;43.608;1.458;2023-07-29T11:37:19;99446.38;;;28.53;100.00
49723;BME280;43484;43.608;1.458;2023-07-29T11:39:49;99445.53;;;28.33;100.00
49723;BME280;43484;43.608;1.458;2023-07-29T11:42:16;99443.38;;;28.42;100.00
49723;BME280;43484;43.608;1.458;2023-07-29T11:44:42;99439.25;;;28.36;100.00
49723;BME280;43484;43.608;1.458;2023-07-29T11:47:10;99437.19;;;28.43;100.00
49723;BME280;43484;43.608;1.458;2023-07-29T11:49:41;99438.38;;;28.54;100.00
49723;BME280;43484;43.608;1.458;2023-07-29T11:52:08;99438.00;;;28.62;100.00
49723;BME280;43484;43.608;1.458;2023-07-29T11:54:36;99436.91;;;28.66;100.00
49723;BME280;43484;43.608;1.458;2023-07-29T11:57:08;99428.19;;;28.65;100.00
49723;BME280;43484;43.608;1.458;2023-07-29T11:59:36;99431.66;;;28.83;100.00
49723;BME280;43484;43.608;1.458;2023-07-29T12:02:15;99434.72;;;29.08;100.00
49723;BME280;43484;43.608;1.458;2023-07-29T12:04:43;99434.56;;;28.94;100.00
49723;BME280;43484;43.608;1.458;2023-07-29T12:07:13;99439.56;;;29.00;100.00
49723;BME280;43484;43.608;1.458;2023-07-29T12:09:40;99435.22;;;29.16;100.00
49723;BME280;43484;43.608;1.458;2023-07-29T12:12:08;99427.06;;;29.03;100.00
49723;BME280;43484;43.608;1.458;2023-07-29T12:14:35;99427.63;;;29.10;100.00
49723;BME280;43484;43.608;1.458;2023-07-29T12:17:04;99433.16;;;29.04;100.00
49723;BME280;43484;43.608;1.458;2023-07-29T12:19:36;99424.16;;;29.08;100.00
49723;BME280;43484;43.608;1.458;2023-07-29T12:22:04;99433.31;;;29.35;100.00
49723;BME280;43484;43.608;1.458;2023-07-29T12:24:32;99430.47;;;29.05;100.00
49723;BME280;43484;43.608;1.458;2023-07-29T12:26:59;99421.88;;;29.02;100.00
49723;BME280;43484;43.608;1.458;2023-07-29T12:29:27;99422.00;;;29.16;100.00
49723;BME280;43484;43.608;1.458;2023-07-29T12:31:58;99417.66;;;29.47;100.00
49723;BME280;43484;43.608;1.458;2023-07-29T12:34:27;99412.06;;;29.53;100.00
49723;BME280;43484;43.608;1.458;2023-07-29T12:36:58;99414.75;;;29.85;100.00
49723;BME280;43484;43.608;1.458;2023-07-29T12:39:35;99412.06;;;29.53;100.00
49723;BME280;43484;43.608;1.458;2023-07-29T12:42:03;99405.16;;;29.51;100.00
49723;BME280;43484;43.608;1.458;2023-07-29T12:44:32;99404.91;;;29.56;100.00
49723;BME280;43484;43.608;1.458;2023-07-29T12:47:03;99408.34;;;29.73;100.00
49723;BME280;43484;43.608;1.458;2023-07-29T12:49:31;99399.59;;;29.88;100.00
49723;BME280;43484;43.608;1.458;2023-07-29T12:52:01;99406.13;;;30.12;100.00
49723;BME280;43484;43.608;1.458;2023-07-29T12:54:28;99400.50;;;30.18;100.00
49723;BME280;43484;43.608;1.458;2023-07-29T12:56:55;99403.25;;;30.32;100.00
49723;BME280;43484;43.608;1.458;2023-07-29T12:59:21;99401.69;;;30.28;100.00
49723;BME280;43484;43.608;1.458;2023-07-29T13:01:48;99394.66;;;30.43;100.00
49723;BME280;43484;43.608;1.458;2023-07-29T13:04:15;99397.19;;;30.60;100.00
49723;BME280;43484;43.608;1.458;2023-07-29T13:06:42;99401.84;;;30.70;100.00
49723;BME280;43484;43.608;1.458;2023-07-29T13:09:08;99390.00;;;30.62;100.00